Relevés horaires Titlis (Suisse)


Relevés horaires à Titlis - Vendredi 28 Mai 2021
Heure UTC1 Température [°C] Vent [km/h] Hum. [%] Pres.4 [hPa] Visi. [Km] Nébu. [octa] Préc.5 [mm] Cond.
2m. Res. Ros. Dir.2 Vit. Moy. Raf.3
23:00 -1.3 -8.3 -1.3 O 31.5 -- 46.3 100 700(0.0/3h) -- -- -- --
22:00 -1.4 -7.8 -1.4 O 25.9 -- 46.3 100 700(0.3/3h) -- -- -- --
21:00 -1.2 -8.2 -1.2 O 31.5 -- 48.2 100 700(0.4/3h) -- -- -- --
20:00 -1.3 -8.3 -1.3 O 31.5 -- 46.3 100 700(0.4/3h) -- -- -- --
19:00 -0.7 -7.9 -2.6 O 35.2 -- 44.4 87 700(0.0/3h) -- -- -- --
18:00 -0.1 -6.6 -4.2 O 29.6 -- 42.6 74 700(0.0/3h) -- -- -- --
17:00 -0.6 -5.8 -3.2 OSO 18.5 -- 38.9 83 700(-0.2/3h) -- -- -- --
16:00 -0.5 -6.4 -5.0 OSO 24.1 -- 38.9 72 700(0.1/3h) -- -- -- --
15:00 -0.4 -4.9 -4.8 OSO 14.8 -- 42.6 72 700(0.1/3h) -- -- -- --
14:00 -0.2 -6.5 -12.8 O 27.8 -- 42.6 38 700(0.2/3h) -- -- -- --
13:00 -0.5 -5.6 -10.1 OSO 18.5 -- 40.7 48 700(0.2/3h) -- -- -- --
12:00 -0.3 -6.8 -14.4 O 29.6 -- 42.6 33 700(0.3/3h) -- -- -- --
11:00 -0.5 -7.3 -17.5 O 31.5 -- 42.6 26 700(0.4/3h) -- -- -- --
10:00 -1.3 -8.3 -21.1 O 31.5 -- 42.6 20 700(0.4/3h) -- -- -- --
09:00 -1.9 -8.2 -19.3 O 24.1 -- 37.0 25 700(0.5/3h) -- -- -- --
08:00 -1.7 -8.4 -19.8 O 27.8 -- 37.0 24 700(0.7/3h) -- -- -- --
07:00 -1.1 -7.4 -21.1 O 25.9 -- 33.3 20 700(0.9/3h) -- -- -- --
06:00 -1.3 -6.9 -21.2 O 20.4 -- 35.2 20 700(0.5/3h) -- -- -- --
05:00 -2.0 -7.5 -20.1 ONO 18.5 -- 27.8 23 700(0.2/3h) -- -- -- --
04:00 -2.0 -8.1 -22.4 ONO 22.2 -- 29.6 19 700(0.0/3h) -- -- -- --
03:00 -2.2 -9.1 -23.2 ONO 27.8 -- 35.2 18 700(0.2/3h) -- -- -- --
02:00 -2.7 -9.7 -20.8 O 27.8 -- 33.3 23 700(0.3/3h) -- -- -- --
01:00 -3.3 -10 -20.3 ONO 24.1 -- 31.5 25 700(0.2/3h) -- -- -- --
00:00 -4.8 -11.9 -14.6 O 24.1 -- 50.0 46 700(0.1/3h) -- -- -- --

1 Coordinated Universal Time. Actuellement il est 09:00 locale et 07:00 UTC.

2 Le vent souffle depuis la direction indiquée vers la direction oposée.

3 Les rafales max. sont disponible 40 min après l'heure du relevé.

4 Pour les stations d'altitude (plus de 600m) le géopotentiel du niveau le plus proche de la pression obligatoire est indiqué.

5 Les stations disposant d'un diffuseur peuvent indiquer "trace". Cela signifie que des précipitations ont touchés le sol mais que la quantité est inférieure à 0.1 mm.

Copyright

Les données affichées sur cette page sont la propriété exclusive de Météo Suisse.

Récapitulatif de la journée
Température [°C] Vent [km/h] Ensoleillement4 [h] Precipitations totale5 [mm] Pression [Hpa]
Min1 Max.2 Moy.3 Max. Min Max.
-5.8 0.1 0 50.0 14 h 0 min 0 700.0 700.0

1 Température minimale relevée entre 18:00 UTC la veille et 18:00 UTC le jour donné.

2 Température maximale relevée entre 06:00 UTC le jour donné et 06:00 UTC le lendemain.

3 Vent moyen de la journée basé sur les relevés horaires.

4 Ensoleillement en heures relevé entre 06:00 UTC la veille et 06:00 UTC le jour donné.

5 Précipitations totales tombées entre 06:00 UTC la jour donné et 06:00 UTC le lendemain.

Graphiques horaires